Time;durP1;ratioP1;P1;durP2;ratioP2;P2;SDS_P1;SDS_P2;PMS_P1;PMS_P2;Temp;Humidity;BMP_temperature;BMP_pressure;BME280_temperature;BME280_humidity;BME280_pressure;Samples;Min_cycle;Max_cycle;Signal;HPM_P1;HPM_P2
2023/07/27 00:02:07;;;;;;;9.85;4.65;;;12.30;99.90;;;;;;4991790;28;20056;-85
2023/07/27 00:04:33;;;;;;;8.55;4.75;;;12.30;99.90;;;;;;4992630;28;20368;-85
2023/07/27 00:06:59;;;;;;;7.68;4.13;;;12.20;99.90;;;;;;5007459;28;20548;-86
2023/07/27 00:09:25;;;;;;;12.70;4.70;;;12.20;99.90;;;;;;4993105;28;20105;-85
2023/07/27 00:11:51;;;;;;;7.57;4.65;;;12.20;99.90;;;;;;4992403;28;20045;-86
2023/07/27 00:14:17;;;;;;;10.10;4.43;;;12.20;99.90;;;;;;4992073;28;20049;-86
2023/07/27 00:16:43;;;;;;;7.85;4.28;;;12.20;99.90;;;;;;5023825;28;20080;-86
2023/07/27 00:19:08;;;;;;;7.10;4.47;;;12.10;99.90;;;;;;5009066;28;20411;-85
2023/07/27 00:21:34;;;;;;;9.68;4.97;;;12.10;99.90;;;;;;5024459;28;20053;-85
2023/07/27 00:24:00;;;;;;;12.82;4.88;;;12.10;99.90;;;;;;5009023;28;20069;-86
2023/07/27 00:26:25;;;;;;;12.48;5.60;;;12.10;99.90;;;;;;5009626;28;20056;-85
2023/07/27 00:28:51;;;;;;;9.80;4.95;;;12.10;99.90;;;;;;4990995;28;20041;-85
2023/07/27 00:31:17;;;;;;;10.25;5.60;;;12.10;99.90;;;;;;5005437;28;20072;-86
2023/07/27 00:33:43;;;;;;;10.52;5.53;;;12.10;99.90;;;;;;4990970;28;20437;-85
2023/07/27 00:36:08;;;;;;;12.63;5.63;;;12.10;99.90;;;;;;5009366;28;20141;-86
2023/07/27 00:38:34;;;;;;;8.30;5.05;;;12.10;99.90;;;;;;4994655;28;20497;-86
2023/07/27 00:41:00;;;;;;;9.07;5.35;;;12.20;99.90;;;;;;5028064;28;20427;-86
2023/07/27 00:43:25;;;;;;;11.30;5.45;;;12.20;99.90;;;;;;4995267;28;20044;-86
2023/07/27 00:45:51;;;;;;;10.38;5.82;;;12.10;99.90;;;;;;5011642;28;20051;-85
2023/07/27 00:48:21;;;;;;;11.75;6.32;;;12.20;99.90;;;;;;5029127;28;20045;-85
2023/07/27 00:50:47;;;;;;;10.35;5.88;;;12.20;99.90;;;;;;4994287;28;20052;-85
2023/07/27 00:53:14;;;;;;;11.70;5.88;;;12.20;99.90;;;;;;5012656;28;20325;-85
2023/07/27 00:55:41;;;;;;;8.68;5.63;;;12.30;99.90;;;;;;5010708;28;20045;-85
2023/07/27 00:58:07;;;;;;;8.93;5.15;;;12.30;99.90;;;;;;5012660;28;20045;-86
2023/07/27 01:00:33;;;;;;;11.10;6.20;;;12.30;99.90;;;;;;4995062;28;20547;-86
2023/07/27 01:03:02;;;;;;;11.88;6.18;;;12.20;99.90;;;;;;4993899;28;20041;-86
2023/07/27 01:05:29;;;;;;;11.93;5.70;;;12.30;99.90;;;;;;4995589;28;20049;-86
2023/07/27 01:07:54;;;;;;;9.00;5.68;;;12.30;99.90;;;;;;5028274;28;20041;-86
2023/07/27 01:10:30;;;;;;;10.73;5.72;;;12.30;99.90;;;;;;4994643;28;20051;-85
2023/07/27 01:13:04;;;;;;;10.30;5.80;;;12.30;99.90;;;;;;5029509;28;20060;-85
2023/07/27 01:15:35;;;;;;;10.88;6.50;;;12.30;99.90;;;;;;5028787;28;20077;-86
2023/07/27 01:18:29;;;;;;;12.20;6.05;;;12.30;99.90;;;;;;5010258;28;20056;-86
2023/07/27 01:21:09;;;;;;;10.18;6.20;;;12.30;99.90;;;;;;4986831;28;20524;-85
2023/07/27 01:24:00;;;;;;;9.57;5.72;;;12.30;99.90;;;;;;5010944;28;20038;-85
2023/07/27 01:26:57;;;;;;;12.68;5.82;;;12.30;99.90;;;;;;5030270;28;20120;-86
2023/07/27 01:29:51;;;;;;;12.20;6.20;;;12.30;99.90;;;;;;5028695;28;20195;-85
2023/07/27 01:32:19;;;;;;;10.57;6.22;;;12.40;99.90;;;;;;4999842;28;20061;-85
2023/07/27 01:34:51;;;;;;;12.18;5.85;;;12.40;99.90;;;;;;5011241;28;20045;-85
2023/07/27 01:37:18;;;;;;;10.65;6.10;;;12.50;99.90;;;;;;5011121;28;20147;-86
2023/07/27 01:39:49;;;;;;;9.95;5.65;;;12.50;99.90;;;;;;5010291;28;20053;-86
2023/07/27 01:42:16;;;;;;;18.35;6.32;;;12.50;99.90;;;;;;5011394;28;20128;-85
2023/07/27 01:44:42;;;;;;;10.23;5.78;;;12.50;99.90;;;;;;5009970;28;20405;-85
2023/07/27 01:47:09;;;;;;;12.10;5.50;;;12.50;99.90;;;;;;5038439;28;20048;-85
2023/07/27 01:49:39;;;;;;;10.13;6.20;;;12.50;99.90;;;;;;4995062;28;20083;-86
2023/07/27 01:52:06;;;;;;;8.85;5.50;;;12.50;99.90;;;;;;5018499;28;20365;-86
2023/07/27 01:54:34;;;;;;;12.57;5.93;;;12.50;99.90;;;;;;4994454;28;20053;-86
2023/07/27 01:57:01;;;;;;;10.48;6.18;;;12.50;99.90;;;;;;5023071;28;20115;-85
2023/07/27 01:59:28;;;;;;;8.73;5.63;;;12.50;99.90;;;;;;4994321;28;20045;-86
2023/07/27 02:01:54;;;;;;;8.75;5.60;;;12.40;99.90;;;;;;5027728;28;20050;-86
2023/07/27 02:04:20;;;;;;;12.25;6.20;;;12.40;99.90;;;;;;5010941;28;20393;-86
2023/07/27 02:06:50;;;;;;;8.82;5.47;;;12.40;99.90;;;;;;5009688;28;20484;-85
2023/07/27 02:09:16;;;;;;;9.48;5.38;;;12.40;99.90;;;;;;5027420;28;20049;-86
2023/07/27 02:11:45;;;;;;;9.98;5.00;;;12.40;99.90;;;;;;5010036;28;20068;-86
2023/07/27 02:14:37;;;;;;;8.88;5.65;;;12.30;99.90;;;;;;4997526;28;20436;-86
2023/07/27 02:17:12;;;;;;;10.30;5.85;;;12.30;99.90;;;;;;4992922;28;20091;-85
2023/07/27 02:19:42;;;;;;;9.15;5.20;;;12.30;99.90;;;;;;5010295;28;20111;-85
2023/07/27 02:22:09;;;;;;;10.98;5.78;;;12.30;99.90;;;;;;5008729;28;20052;-85
2023/07/27 02:24:35;;;;;;;10.00;5.40;;;12.30;99.90;;;;;;5010423;28;20115;-85
2023/07/27 02:27:01;;;;;;;12.30;4.93;;;12.30;99.90;;;;;;4992439;28;20093;-86
2023/07/27 02:29:27;;;;;;;8.55;5.72;;;12.30;99.90;;;;;;5023242;28;20069;-86
2023/07/27 02:31:52;;;;;;;11.75;5.43;;;12.30;99.90;;;;;;4993182;28;20555;-85
2023/07/27 02:34:19;;;;;;;8.43;5.00;;;12.30;99.90;;;;;;4993155;28;20129;-85
2023/07/27 02:36:45;;;;;;;8.80;5.15;;;12.30;99.90;;;;;;4993730;28;20051;-86
2023/07/27 02:39:11;;;;;;;9.30;5.35;;;12.30;99.90;;;;;;5009769;28;20132;-86
2023/07/27 02:41:36;;;;;;;12.63;4.95;;;12.30;99.90;;;;;;5009150;28;20045;-86
2023/07/27 02:44:02;;;;;;;10.02;5.00;;;12.30;99.90;;;;;;5026893;28;20045;-86
2023/07/27 02:46:28;;;;;;;10.18;5.93;;;12.30;99.90;;;;;;5008530;28;20037;-86
2023/07/27 02:48:55;;;;;;;9.38;5.60;;;12.30;99.90;;;;;;5010502;28;20448;-86
2023/07/27 02:51:21;;;;;;;9.10;5.60;;;12.30;99.90;;;;;;4993185;28;20077;-86
2023/07/27 02:53:47;;;;;;;9.27;5.32;;;12.40;99.90;;;;;;5026362;28;20095;-86
2023/07/27 02:56:12;;;;;;;8.63;5.32;;;12.40;99.90;;;;;;5010017;28;20044;-85
2023/07/27 02:58:38;;;;;;;10.05;5.80;;;12.40;99.90;;;;;;5010000;28;20599;-85
2023/07/27 03:01:03;;;;;;;10.88;5.35;;;12.30;99.90;;;;;;5008978;28;20091;-86
2023/07/27 03:03:29;;;;;;;10.07;5.55;;;12.40;99.90;;;;;;5008926;28;20049;-86
2023/07/27 03:06:00;;;;;;;10.50;5.32;;;12.40;99.90;;;;;;4993395;28;20044;-86
2023/07/27 03:08:27;;;;;;;8.55;4.97;;;12.40;99.90;;;;;;5009553;28;20065;-86
2023/07/27 03:10:53;;;;;;;8.93;5.30;;;12.40;99.90;;;;;;4994257;28;20497;-86
2023/07/27 03:13:18;;;;;;;10.98;5.30;;;12.50;99.90;;;;;;5010151;28;20037;-85
2023/07/27 03:15:44;;;;;;;12.05;5.78;;;12.50;99.90;;;;;;4991773;28;20100;-86
2023/07/27 03:18:10;;;;;;;12.00;5.82;;;12.50;99.90;;;;;;5010881;28;20362;-86
2023/07/27 03:20:39;;;;;;;8.45;4.93;;;12.60;99.90;;;;;;5009471;28;20045;-86
2023/07/27 03:23:05;;;;;;;7.72;5.35;;;12.60;99.90;;;;;;5026794;28;20071;-87
2023/07/27 03:25:33;;;;;;;9.38;5.93;;;12.70;99.90;;;;;;5005734;28;20046;-86
2023/07/27 03:27:59;;;;;;;10.65;6.10;;;12.70;99.90;;;;;;5009337;28;20405;-86
2023/07/27 03:30:25;;;;;;;9.43;5.55;;;12.80;99.90;;;;;;5009096;28;20176;-86
2023/07/27 03:32:51;;;;;;;11.93;5.72;;;12.80;99.90;;;;;;5021413;28;20045;-87
2023/07/27 03:35:16;;;;;;;10.55;5.45;;;12.90;99.90;;;;;;5027905;28;20049;-86
2023/07/27 03:37:42;;;;;;;10.07;6.05;;;12.90;99.90;;;;;;5007752;28;20048;-86
2023/07/27 03:40:08;;;;;;;9.77;5.90;;;12.90;99.90;;;;;;5009947;28;20151;-86
2023/07/27 03:42:34;;;;;;;9.52;5.35;;;13.00;99.90;;;;;;5010247;28;20047;-87
2023/07/27 03:44:59;;;;;;;10.48;5.38;;;13.00;99.90;;;;;;5011647;28;20091;-86
2023/07/27 03:47:25;;;;;;;9.27;5.43;;;13.10;99.90;;;;;;5014106;28;20042;-86
2023/07/27 03:49:51;;;;;;;12.18;6.25;;;13.10;99.90;;;;;;5025679;28;20121;-86
2023/07/27 03:52:17;;;;;;;9.90;6.07;;;13.10;99.90;;;;;;5025383;28;20050;-85
2023/07/27 03:54:42;;;;;;;8.05;5.60;;;13.20;99.90;;;;;;5009701;28;20556;-86
2023/07/27 03:57:08;;;;;;;12.00;6.13;;;13.20;99.90;;;;;;5009005;28;20145;-86
2023/07/27 03:59:34;;;;;;;9.00;5.85;;;13.20;99.90;;;;;;5008958;28;20081;-87
2023/07/27 04:01:59;;;;;;;11.90;6.00;;;13.20;99.90;;;;;;5027705;28;20041;-86
2023/07/27 04:04:25;;;;;;;16.25;5.53;;;13.20;99.90;;;;;;5009696;28;20044;-86
2023/07/27 04:06:51;;;;;;;10.75;5.88;;;13.20;99.90;;;;;;5008311;28;20321;-87
2023/07/27 04:09:16;;;;;;;10.95;5.72;;;13.30;99.90;;;;;;5010127;28;20480;-86
2023/07/27 04:11:42;;;;;;;8.98;6.00;;;13.30;99.90;;;;;;4992436;28;20508;-86
2023/07/27 04:14:08;;;;;;;9.07;6.10;;;13.30;99.90;;;;;;4995262;28;20128;-86
2023/07/27 04:16:33;;;;;;;13.13;6.15;;;13.30;99.90;;;;;;5027974;28;20083;-86
2023/07/27 04:18:59;;;;;;;9.80;5.78;;;13.30;99.90;;;;;;5026100;28;20504;-86
2023/07/27 04:21:25;;;;;;;9.57;5.88;;;13.30;99.90;;;;;;5029111;28;20496;-86
2023/07/27 04:23:50;;;;;;;9.55;5.72;;;13.30;99.90;;;;;;5012697;28;20088;-86
2023/07/27 04:26:16;;;;;;;11.45;6.00;;;13.40;99.90;;;;;;4993456;28;20050;-86
2023/07/27 04:28:42;;;;;;;10.45;6.85;;;13.30;99.90;;;;;;5011520;28;20140;-85
2023/07/27 04:31:07;;;;;;;9.98;6.32;;;13.30;99.90;;;;;;5012342;28;20067;-86
2023/07/27 04:33:33;;;;;;;10.13;7.00;;;13.40;99.90;;;;;;5011942;28;20049;-86
2023/07/27 04:36:01;;;;;;;13.25;6.90;;;13.40;99.90;;;;;;5029647;28;20045;-86
2023/07/27 04:38:26;;;;;;;14.75;6.55;;;13.40;99.90;;;;;;5034400;28;20107;-85
2023/07/27 04:40:52;;;;;;;10.18;6.82;;;13.40;99.90;;;;;;4999306;28;20460;-86
2023/07/27 04:43:18;;;;;;;11.73;6.70;;;13.40;99.90;;;;;;5019443;28;20044;-86
2023/07/27 04:45:44;;;;;;;12.00;6.10;;;13.40;99.90;;;;;;4999330;28;20069;-86
2023/07/27 04:48:09;;;;;;;11.57;6.72;;;13.40;99.90;;;;;;4994185;28;20124;-86
2023/07/27 04:50:36;;;;;;;14.82;7.03;;;13.50;99.90;;;;;;5010084;28;20588;-86
2023/07/27 04:53:01;;;;;;;12.63;6.53;;;13.50;99.90;;;;;;4994112;28;20042;-86
2023/07/27 04:55:27;;;;;;;11.90;7.25;;;13.50;99.90;;;;;;5027188;28;20053;-86
2023/07/27 04:57:53;;;;;;;13.88;6.93;;;13.60;99.90;;;;;;5009938;28;20039;-86
2023/07/27 05:00:19;;;;;;;11.50;7.38;;;13.50;99.90;;;;;;5012366;28;20536;-86
2023/07/27 05:02:45;;;;;;;13.55;7.15;;;13.60;99.90;;;;;;4994515;28;20081;-86
2023/07/27 05:05:10;;;;;;;13.02;7.15;;;13.60;99.90;;;;;;5026367;28;20045;-86
2023/07/27 05:07:36;;;;;;;13.50;7.90;;;13.60;99.90;;;;;;5006685;28;20050;-86
2023/07/27 05:10:02;;;;;;;11.02;7.53;;;13.60;99.90;;;;;;5001590;28;20477;-86
2023/07/27 05:12:28;;;;;;;16.88;7.47;;;13.70;99.90;;;;;;5025543;28;20045;-86
2023/07/27 05:14:54;;;;;;;14.77;8.10;;;13.60;99.90;;;;;;5021391;28;20114;-86
2023/07/27 05:17:20;;;;;;;14.85;7.60;;;13.70;99.90;;;;;;5010208;28;20552;-85
2023/07/27 05:19:47;;;;;;;12.48;7.30;;;13.70;99.90;;;;;;4995494;28;20079;-85
2023/07/27 05:22:13;;;;;;;13.73;7.72;;;13.70;99.90;;;;;;4994773;28;20037;-85
2023/07/27 05:24:38;;;;;;;11.75;7.85;;;13.80;99.90;;;;;;5010627;28;20126;-85
2023/07/27 05:27:04;;;;;;;14.45;8.38;;;13.80;99.90;;;;;;5001346;28;20060;-86
2023/07/27 05:29:30;;;;;;;12.25;8.00;;;13.90;99.90;;;;;;4995364;28;20047;-84
2023/07/27 05:31:57;;;;;;;13.05;7.63;;;13.90;99.90;;;;;;5009806;28;20354;-85
2023/07/27 05:34:23;;;;;;;13.75;7.78;;;13.90;99.90;;;;;;5028430;28;20045;-84
2023/07/27 05:36:49;;;;;;;12.43;7.82;;;13.90;99.90;;;;;;4994383;28;20054;-84
2023/07/27 05:39:14;;;;;;;13.32;7.13;;;14.00;99.90;;;;;;5004330;28;20046;-84
2023/07/27 05:41:40;;;;;;;17.02;8.48;;;14.00;99.90;;;;;;5009903;28;20041;-83
2023/07/27 05:44:06;;;;;;;13.38;7.60;;;14.00;99.90;;;;;;5010627;28;20080;-84
2023/07/27 05:46:32;;;;;;;16.98;8.23;;;14.10;99.90;;;;;;5009080;28;20057;-83
2023/07/27 05:48:57;;;;;;;11.82;7.45;;;14.00;99.90;;;;;;5010716;28;20103;-84
2023/07/27 05:51:23;;;;;;;18.90;8.43;;;14.00;99.90;;;;;;5009448;28;20477;-84
2023/07/27 05:53:49;;;;;;;15.38;8.90;;;14.00;99.90;;;;;;4994235;28;20091;-85
2023/07/27 05:56:14;;;;;;;15.60;8.23;;;14.00;99.90;;;;;;5028063;28;20056;-84
2023/07/27 05:58:40;;;;;;;10.85;7.45;;;13.90;99.90;;;;;;5009286;28;20069;-84
2023/07/27 06:01:06;;;;;;;11.65;7.45;;;13.90;99.90;;;;;;4993451;28;20390;-84
2023/07/27 06:03:32;;;;;;;11.55;7.32;;;13.90;99.90;;;;;;4994637;28;20049;-84
2023/07/27 06:05:58;;;;;;;11.60;7.18;;;13.90;99.90;;;;;;4993008;28;20085;-84
2023/07/27 06:08:24;;;;;;;14.93;7.68;;;13.90;99.90;;;;;;5010404;28;20056;-84
2023/07/27 06:11:03;;;;;;;11.35;6.68;;;13.90;99.90;;;;;;5009679;28;20408;-83
2023/07/27 06:13:30;;;;;;;10.98;6.97;;;13.90;99.90;;;;;;5008989;28;20477;-84
2023/07/27 06:15:55;;;;;;;13.13;7.10;;;13.90;99.90;;;;;;4990547;28;20136;-85
2023/07/27 06:18:21;;;;;;;13.13;7.28;;;14.00;99.90;;;;;;4977571;28;20565;-84
2023/07/27 06:20:47;;;;;;;15.68;7.25;;;14.00;99.90;;;;;;4970516;28;20056;-85
2023/07/27 06:23:12;;;;;;;12.98;7.25;;;14.10;99.90;;;;;;5005103;28;20034;-81
2023/07/27 06:25:42;;;;;;;11.98;7.03;;;14.20;99.90;;;;;;5005802;28;20088;-86
2023/07/27 06:28:08;;;;;;;12.80;7.20;;;14.30;99.90;;;;;;4975667;28;20060;-84
2023/07/27 06:30:40;;;;;;;10.48;6.68;;;14.40;99.90;;;;;;5007955;28;20086;-87
2023/07/27 06:33:06;;;;;;;12.35;6.55;;;14.50;99.90;;;;;;4990419;28;20053;-86
2023/07/27 06:35:33;;;;;;;10.18;6.20;;;14.60;99.90;;;;;;4990144;28;20042;-85
2023/07/27 06:37:59;;;;;;;9.80;5.88;;;14.80;99.90;;;;;;4990333;28;20065;-85
2023/07/27 06:40:25;;;;;;;10.85;5.97;;;15.00;99.90;;;;;;4973509;28;20115;-85
2023/07/27 06:42:51;;;;;;;9.27;5.60;;;15.10;99.90;;;;;;4989615;28;20053;-85
2023/07/27 06:45:16;;;;;;;8.18;5.38;;;15.30;99.90;;;;;;4990665;28;20046;-86
2023/07/27 06:47:43;;;;;;;9.07;5.50;;;15.50;99.90;;;;;;4972489;28;20046;-83
2023/07/27 06:50:09;;;;;;;8.15;5.38;;;15.60;99.90;;;;;;4990618;28;20080;-84
2023/07/27 06:52:35;;;;;;;9.25;5.65;;;15.70;99.90;;;;;;4989770;28;20085;-85
2023/07/27 06:55:01;;;;;;;13.45;5.85;;;15.70;99.90;;;;;;4988940;28;20147;-84
2023/07/27 06:57:27;;;;;;;7.82;5.18;;;15.80;99.90;;;;;;4975974;28;20057;-85
2023/07/27 06:59:53;;;;;;;7.82;5.00;;;15.80;99.90;;;;;;4973433;28;20081;-85
2023/07/27 07:02:19;;;;;;;8.55;5.05;;;15.90;99.90;;;;;;4972509;28;20077;-85
2023/07/27 07:04:45;;;;;;;10.43;5.22;;;16.00;99.90;;;;;;4989738;28;20474;-85
2023/07/27 07:07:11;;;;;;;8.52;4.95;;;15.90;99.90;;;;;;4989574;28;20046;-85
2023/07/27 07:09:38;;;;;;;8.35;5.00;;;16.00;99.90;;;;;;4989186;28;20078;-85
2023/07/27 07:12:05;;;;;;;9.85;4.75;;;16.00;99.90;;;;;;4973155;28;20045;-85
2023/07/27 07:14:31;;;;;;;8.55;4.75;;;16.00;99.90;;;;;;4989593;28;20041;-85
2023/07/27 07:16:58;;;;;;;6.50;4.25;;;15.90;99.90;;;;;;4987431;28;20053;-84
2023/07/27 07:19:23;;;;;;;7.47;3.92;;;15.90;99.90;;;;;;5027518;28;20069;-83
2023/07/27 07:21:49;;;;;;;7.32;4.38;;;15.90;99.90;;;;;;5009298;28;20154;-85
2023/07/27 07:24:15;;;;;;;7.75;3.83;;;15.80;99.90;;;;;;4992223;28;20422;-85
2023/07/27 07:26:40;;;;;;;9.00;4.50;;;15.80;99.90;;;;;;4992497;28;20056;-85
2023/07/27 07:29:07;;;;;;;7.38;4.60;;;15.80;99.90;;;;;;5009586;28;20671;-84
2023/07/27 07:31:33;;;;;;;7.80;4.20;;;15.80;99.90;;;;;;4990101;28;20124;-85
2023/07/27 07:33:59;;;;;;;7.18;4.13;;;15.90;99.90;;;;;;4991020;28;20480;-86
2023/07/27 07:36:25;;;;;;;9.40;4.18;;;15.90;99.90;;;;;;5006169;28;20049;-85
2023/07/27 07:38:51;;;;;;;7.95;4.80;;;15.90;99.90;;;;;;5007191;28;20124;-85
2023/07/27 07:41:17;;;;;;;7.90;4.30;;;15.90;99.90;;;;;;5006863;28;20053;-87
2023/07/27 07:43:43;;;;;;;7.15;4.15;;;15.90;99.90;;;;;;5006638;28;20045;-85
2023/07/27 07:46:13;;;;;;;7.10;4.10;;;15.80;99.90;;;;;;5007672;28;20041;-86
2023/07/27 07:48:39;;;;;;;7.28;4.20;;;15.80;99.90;;;;;;4995311;28;20045;-85
2023/07/27 07:51:12;;;;;;;7.97;4.45;;;15.70;99.90;;;;;;5029999;28;20077;-85
2023/07/27 07:53:37;;;;;;;7.05;3.92;;;15.70;99.90;;;;;;4996685;28;20049;-85
2023/07/27 07:56:04;;;;;;;6.95;4.05;;;15.80;99.90;;;;;;4996786;28;20045;-86
2023/07/27 07:58:30;;;;;;;7.05;3.80;;;15.80;99.90;;;;;;5012287;28;20127;-86
2023/07/27 08:00:56;;;;;;;5.95;3.88;;;16.00;99.90;;;;;;4995640;28;20136;-86
2023/07/27 08:03:22;;;;;;;6.85;3.60;;;16.00;99.90;;;;;;4996486;28;20135;-87
2023/07/27 08:05:48;;;;;;;5.57;3.30;;;16.10;99.90;;;;;;5012097;28;20128;-86
2023/07/27 08:08:14;;;;;;;6.30;3.03;;;16.20;99.90;;;;;;5013661;28;20513;-86
2023/07/27 08:10:40;;;;;;;4.57;2.95;;;16.20;99.90;;;;;;5011112;28;20049;-86
2023/07/27 08:13:06;;;;;;;6.03;3.10;;;16.30;99.90;;;;;;5012549;28;20480;-86
2023/07/27 08:15:31;;;;;;;5.50;2.83;;;16.30;99.90;;;;;;5028522;28;20149;-85
2023/07/27 08:17:57;;;;;;;4.95;2.42;;;16.30;99.90;;;;;;5012014;28;20454;-87
2023/07/27 08:20:23;;;;;;;6.57;2.65;;;16.40;99.90;;;;;;5012197;28;20060;-86
2023/07/27 08:22:49;;;;;;;4.32;2.40;;;16.50;99.90;;;;;;5028000;28;20049;-86
2023/07/27 08:25:17;;;;;;;4.72;2.40;;;16.60;99.90;;;;;;5013359;28;20037;-87
2023/07/27 08:27:43;;;;;;;8.00;2.42;;;16.60;99.90;;;;;;5011285;28;20073;-87
2023/07/27 08:30:09;;;;;;;3.35;2.10;;;16.60;99.90;;;;;;4997917;28;20148;-87
2023/07/27 08:32:34;;;;;;;4.53;2.40;;;16.60;99.90;;;;;;5012172;28;20529;-87
2023/07/27 08:35:00;;;;;;;3.67;2.08;;;16.60;99.90;;;;;;5011720;28;20029;-86
2023/07/27 08:37:26;;;;;;;4.30;2.45;;;16.60;99.90;;;;;;4996024;28;20052;-86
2023/07/27 08:39:52;;;;;;;3.95;2.17;;;16.70;99.90;;;;;;4995571;28;20047;-86
2023/07/27 08:42:18;;;;;;;3.15;2.15;;;16.80;99.90;;;;;;5030651;28;20049;-86
2023/07/27 08:44:45;;;;;;;5.22;2.33;;;16.80;99.90;;;;;;5012432;28;20108;-86
2023/07/27 08:47:11;;;;;;;4.47;2.03;;;16.90;99.90;;;;;;5011408;28;20072;-87
2023/07/27 08:49:38;;;;;;;4.20;2.00;;;16.90;99.90;;;;;;5027728;28;20037;-86
2023/07/27 08:52:04;;;;;;;2.80;1.67;;;16.90;99.90;;;;;;5012085;28;20049;-87
2023/07/27 08:54:30;;;;;;;2.97;1.80;;;17.00;99.90;;;;;;5027562;28;20042;-87
2023/07/27 08:56:56;;;;;;;3.15;1.80;;;16.90;99.90;;;;;;5029903;28;20045;-87
2023/07/27 08:59:24;;;;;;;2.92;1.75;;;16.90;99.90;;;;;;5011327;28;20029;-86
2023/07/27 09:01:51;;;;;;;3.70;1.65;;;16.80;99.90;;;;;;4994459;28;20050;-87
2023/07/27 09:04:17;;;;;;;3.78;1.90;;;16.80;99.90;;;;;;5026712;28;20370;-87
2023/07/27 09:06:44;;;;;;;2.58;1.70;;;16.90;99.90;;;;;;5011918;28;20048;-87
2023/07/27 09:09:25;;;;;;;2.78;1.58;;;16.90;99.90;;;;;;5014332;28;20037;-87
2023/07/27 09:11:52;;;;;;;3.42;1.67;;;17.00;99.90;;;;;;5016794;28;20060;-87
2023/07/27 09:14:19;;;;;;;3.03;1.80;;;17.00;99.90;;;;;;5013133;28;20053;-87
2023/07/27 09:16:46;;;;;;;3.42;1.70;;;17.00;99.90;;;;;;5010158;28;20124;-87
2023/07/27 09:19:12;;;;;;;3.83;1.65;;;17.00;99.90;;;;;;5012977;28;20037;-87
2023/07/27 09:21:40;;;;;;;3.40;1.90;;;17.10;99.90;;;;;;5011319;28;20092;-87
2023/07/27 09:24:10;;;;;;;3.42;1.70;;;17.20;99.90;;;;;;5028693;28;20634;-86
2023/07/27 09:26:42;;;;;;;3.40;1.80;;;17.30;99.90;;;;;;5011508;28;20049;-87
2023/07/27 09:29:08;;;;;;;2.95;1.85;;;17.50;99.90;;;;;;4995665;28;20045;-86
2023/07/27 09:31:42;;;;;;;3.13;1.73;;;17.60;99.90;;;;;;5011044;28;20034;-86
2023/07/27 09:34:08;;;;;;;2.67;1.73;;;17.70;99.90;;;;;;5011952;28;20053;-87
2023/07/27 09:36:33;;;;;;;3.03;1.60;;;17.70;99.90;;;;;;5025931;28;20319;-87
2023/07/27 09:39:00;;;;;;;3.35;2.05;;;17.70;99.90;;;;;;5028150;28;20042;-86
2023/07/27 09:41:26;;;;;;;4.78;1.70;;;17.60;99.90;;;;;;5010424;28;20163;-86
2023/07/27 09:43:53;;;;;;;3.05;1.50;;;17.50;99.90;;;;;;5018807;28;20128;-88
2023/07/27 09:46:22;;;;;;;4.10;1.90;;;17.50;99.90;;;;;;5027080;28;20539;-86
2023/07/27 09:48:49;;;;;;;3.20;1.42;;;17.40;99.90;;;;;;5002985;28;20050;-86
2023/07/27 09:51:16;;;;;;;3.72;2.00;;;17.40;99.90;;;;;;4994698;28;20929;-85
2023/07/27 09:53:44;;;;;;;3.83;2.00;;;17.40;99.90;;;;;;5012331;28;20053;-84
2023/07/27 09:56:11;;;;;;;2.00;1.38;;;17.40;99.90;;;;;;5014659;28;20080;-85
2023/07/27 09:58:37;;;;;;;3.00;1.33;;;17.40;99.90;;;;;;5009559;28;20030;-84
2023/07/27 10:01:02;;;;;;;2.65;1.80;;;17.40;99.90;;;;;;5037223;28;20449;-85
2023/07/27 10:03:28;;;;;;;2.72;1.80;;;17.40;99.90;;;;;;5015127;28;20409;-85
2023/07/27 10:05:55;;;;;;;2.72;1.95;;;17.50;99.90;;;;;;5009317;28;20444;-85
2023/07/27 10:08:21;;;;;;;3.55;1.77;;;17.60;99.90;;;;;;5026992;28;20454;-85
2023/07/27 10:10:53;;;;;;;2.72;2.00;;;17.70;99.90;;;;;;5026993;28;20069;-84
2023/07/27 10:13:24;;;;;;;2.10;1.50;;;17.70;99.90;;;;;;5001866;28;20049;-84
2023/07/27 10:15:52;;;;;;;2.47;1.48;;;17.80;99.90;;;;;;4995286;28;20132;-85
2023/07/27 10:18:23;;;;;;;2.50;1.50;;;17.80;99.90;;;;;;5026337;28;20057;-84
2023/07/27 10:20:50;;;;;;;2.83;1.70;;;17.90;99.90;;;;;;5009930;28;20041;-84
2023/07/27 10:23:18;;;;;;;2.80;1.33;;;18.00;99.90;;;;;;5018271;28;20099;-84
2023/07/27 10:25:56;;;;;;;2.20;1.13;;;18.00;99.90;;;;;;5009648;28;20076;-84
2023/07/27 10:28:41;;;;;;;2.55;1.25;;;18.00;99.90;;;;;;5009899;28;20124;-85
2023/07/27 10:31:17;;;;;;;2.97;1.27;;;18.00;99.90;;;;;;5009282;28;20049;-85
2023/07/27 10:34:08;;;;;;;2.42;1.15;;;18.00;99.90;;;;;;5003937;28;20053;-85
2023/07/27 10:36:51;;;;;;;2.15;1.15;;;18.00;99.90;;;;;;5022844;28;20132;-85
2023/07/27 10:39:47;;;;;;;1.75;1.00;;;18.00;99.90;;;;;;4998853;28;20048;-85
2023/07/27 10:42:33;;;;;;;3.28;1.00;;;17.90;99.90;;;;;;5028213;28;20072;-85
2023/07/27 10:44:59;;;;;;;1.08;0.85;;;17.90;99.90;;;;;;4985645;28;20405;-86
2023/07/27 10:47:25;;;;;;;1.23;0.95;;;17.90;99.90;;;;;;5008760;28;20037;-86
2023/07/27 10:49:55;;;;;;;1.27;0.90;;;17.80;99.90;;;;;;5010123;28;20452;-86
2023/07/27 10:52:30;;;;;;;1.60;0.90;;;17.80;99.90;;;;;;5026149;28;20550;-86
2023/07/27 10:54:58;;;;;;;2.40;1.20;;;17.80;99.90;;;;;;5008965;28;20080;-85
2023/07/27 10:57:28;;;;;;;2.88;1.20;;;17.80;99.90;;;;;;4993707;28;20037;-86
2023/07/27 10:59:54;;;;;;;1.40;0.93;;;17.80;99.90;;;;;;5025971;28;20060;-85
2023/07/27 11:02:29;;;;;;;1.30;1.08;;;17.90;99.90;;;;;;4992510;28;20076;-85
2023/07/27 11:04:56;;;;;;;2.22;1.10;;;17.90;99.90;;;;;;5011636;28;20535;-84
2023/07/27 11:07:33;;;;;;;1.33;1.10;;;17.80;99.90;;;;;;5012736;28;20045;-83
2023/07/27 11:10:08;;;;;;;1.95;1.35;;;17.80;99.90;;;;;;5011985;28;20034;-84
2023/07/27 11:12:50;;;;;;;1.95;1.20;;;17.80;99.90;;;;;;5002344;28;20473;-85
2023/07/27 11:15:17;;;;;;;1.58;1.13;;;17.70;99.90;;;;;;5018191;28;20505;-85
2023/07/27 11:17:43;;;;;;;1.50;0.95;;;17.70;99.90;;;;;;5009024;28;20136;-86
2023/07/27 11:20:10;;;;;;;3.03;1.40;;;17.60;99.90;;;;;;5029944;28;20041;-86
2023/07/27 11:22:36;;;;;;;1.60;1.20;;;17.60;99.90;;;;;;5027785;28;20045;-86
2023/07/27 11:25:06;;;;;;;2.53;1.30;;;17.50;99.90;;;;;;5008829;28;20055;-85
2023/07/27 11:27:31;;;;;;;2.17;1.30;;;17.50;99.90;;;;;;5015716;28;20053;-85
2023/07/27 11:30:00;;;;;;;2.33;1.30;;;17.40;99.90;;;;;;5008644;28;20348;-84
2023/07/27 11:32:26;;;;;;;2.85;1.20;;;17.40;99.90;;;;;;5008329;28;20053;-85
2023/07/27 11:34:56;;;;;;;2.38;1.20;;;17.40;99.90;;;;;;5007681;28;20045;-84
2023/07/27 11:37:28;;;;;;;4.22;1.55;;;17.40;99.90;;;;;;5005384;28;20104;-85
2023/07/27 11:39:55;;;;;;;3.55;2.05;;;17.50;99.90;;;;;;5005162;28;20042;-86
2023/07/27 11:42:35;;;;;;;3.10;1.92;;;17.60;99.90;;;;;;5022644;28;20080;-85
2023/07/27 11:45:03;;;;;;;2.28;1.70;;;17.70;99.90;;;;;;5013429;28;20073;-85
2023/07/27 11:47:39;;;;;;;3.35;2.17;;;17.70;99.90;;;;;;5024232;28;20439;-85
2023/07/27 11:50:08;;;;;;;2.85;2.15;;;17.90;99.90;;;;;;5008400;28;20091;-85
2023/07/27 11:52:38;;;;;;;3.35;2.10;;;17.90;99.90;;;;;;5008125;28;20111;-84
2023/07/27 11:55:05;;;;;;;2.97;1.85;;;18.00;99.90;;;;;;5027133;28;20440;-84
2023/07/27 11:57:31;;;;;;;3.45;2.30;;;18.00;99.90;;;;;;5008228;28;20558;-85
2023/07/27 12:00:14;;;;;;;2.88;1.98;;;18.10;99.90;;;;;;4993033;28;20049;-84
2023/07/27 12:02:50;;;;;;;3.45;2.25;;;18.20;99.90;;;;;;5023536;28;20045;-85
2023/07/27 12:05:19;;;;;;;3.58;2.50;;;18.20;99.90;;;;;;5009021;28;20046;-84
2023/07/27 12:07:45;;;;;;;3.83;2.20;;;18.20;99.90;;;;;;5021221;28;20085;-84
2023/07/27 12:10:17;;;;;;;2.97;2.22;;;18.10;99.90;;;;;;5015246;28;20049;-84
2023/07/27 12:13:03;;;;;;;3.63;2.13;;;18.10;99.90;;;;;;5007995;28;20517;-84
2023/07/27 12:15:31;;;;;;;4.30;2.08;;;18.00;99.90;;;;;;5024643;28;20378;-84
2023/07/27 12:17:59;;;;;;;3.75;2.80;;;18.00;99.90;;;;;;5026231;28;20055;-84
2023/07/27 12:20:26;;;;;;;4.28;2.33;;;18.00;99.90;;;;;;5029764;28;20145;-84
2023/07/27 12:22:52;;;;;;;4.15;2.78;;;18.00;99.90;;;;;;5008678;28;20456;-85
2023/07/27 12:25:18;;;;;;;4.03;2.60;;;18.10;99.90;;;;;;4992410;28;20146;-85
2023/07/27 12:27:44;;;;;;;4.10;2.45;;;18.10;99.90;;;;;;5026585;28;20489;-86
2023/07/27 12:30:11;;;;;;;4.55;3.00;;;18.30;99.90;;;;;;4992941;28;20038;-84
2023/07/27 12:32:37;;;;;;;3.75;2.40;;;18.40;99.90;;;;;;5007838;28;20104;-86
2023/07/27 12:35:03;;;;;;;3.13;2.50;;;18.50;99.90;;;;;;5019939;28;20049;-85
2023/07/27 12:37:30;;;;;;;2.88;2.30;;;18.60;99.90;;;;;;5015695;28;20063;-85
2023/07/27 12:39:56;;;;;;;3.22;2.10;;;18.80;99.90;;;;;;5048653;28;20044;-85
2023/07/27 12:42:21;;;;;;;3.78;2.65;;;18.90;99.90;;;;;;5019828;28;20468;-85
2023/07/27 12:44:48;;;;;;;4.18;2.80;;;19.00;99.90;;;;;;5012454;28;20416;-85
2023/07/27 12:47:14;;;;;;;3.67;2.40;;;19.00;99.90;;;;;;5011270;28;20049;-84